createdAt,value
2022-10-28T00:00:37.163Z,3.50
2022-10-28T00:03:04.998Z,2.70
2022-10-28T00:05:36.005Z,2.42
2022-10-28T00:08:03.798Z,2.75
2022-10-28T00:10:31.554Z,3.22
2022-10-28T00:12:59.256Z,3.08
2022-10-28T00:15:27.176Z,3.25
2022-10-28T00:17:55.079Z,3.40
2022-10-28T00:20:23.008Z,5.13
2022-10-28T00:22:52.004Z,3.15
2022-10-28T00:25:24.450Z,3.38
2022-10-28T00:27:53.141Z,3.10
2022-10-28T00:30:21.569Z,2.92
2022-10-28T00:32:49.338Z,2.65
2022-10-28T00:35:17.176Z,2.78
2022-10-28T00:37:44.863Z,3.35
2022-10-28T00:40:14.067Z,3.65
2022-10-28T00:42:41.728Z,3.42
2022-10-28T00:45:11.104Z,2.75
2022-10-28T00:47:51.750Z,3.30
2022-10-28T00:50:29.767Z,5.13
2022-10-28T00:53:01.477Z,3.38
2022-10-28T00:55:32.559Z,3.67
2022-10-28T00:58:02.123Z,3.20
2022-10-28T01:00:29.831Z,3.80
2022-10-28T01:02:57.873Z,3.20
2022-10-28T01:05:28.471Z,3.15
2022-10-28T01:08:00.215Z,3.28
2022-10-28T01:10:40.210Z,2.58
2022-10-28T01:13:16.913Z,3.17
2022-10-28T01:15:59.012Z,4.90
2022-10-28T01:18:32.136Z,3.50
2022-10-28T01:21:22.848Z,3.17
2022-10-28T01:24:05.040Z,3.70
2022-10-28T01:26:56.047Z,2.40
2022-10-28T01:29:55.746Z,3.15
2022-10-28T01:32:32.655Z,2.88
2022-10-28T01:35:11.817Z,3.28
2022-10-28T01:37:48.292Z,2.85
2022-10-28T01:40:23.419Z,2.95
2022-10-28T01:42:56.239Z,2.90
2022-10-28T01:45:29.759Z,4.55
2022-10-28T01:48:02.094Z,3.80
2022-10-28T01:50:33.441Z,2.50
2022-10-28T01:53:04.456Z,3.03
2022-10-28T01:55:36.011Z,2.92
2022-10-28T01:58:05.859Z,3.63
2022-10-28T02:00:34.842Z,2.83
2022-10-28T02:03:06.778Z,2.30
2022-10-28T02:05:39.927Z,3.83
2022-10-28T02:08:22.066Z,3.05
2022-10-28T02:10:57.151Z,2.30
2022-10-28T02:13:32.104Z,3.75
2022-10-28T02:16:07.195Z,2.50
2022-10-28T02:18:44.163Z,2.45
2022-10-28T02:21:18.948Z,2.22
2022-10-28T02:23:50.476Z,3.00
2022-10-28T02:26:22.796Z,2.47
2022-10-28T02:28:56.772Z,2.88
2022-10-28T02:31:27.767Z,2.92
2022-10-28T02:34:01.353Z,2.90
2022-10-28T02:36:32.599Z,2.60
2022-10-28T02:39:03.240Z,4.47
2022-10-28T02:41:35.295Z,3.15
2022-10-28T02:44:07.317Z,3.28
2022-10-28T02:46:38.479Z,2.95
2022-10-28T02:49:11.429Z,2.42
2022-10-28T02:51:43.346Z,4.15
2022-10-28T02:54:14.908Z,2.70
2022-10-28T02:56:50.003Z,2.80
2022-10-28T02:59:19.139Z,2.30
2022-10-28T03:01:46.902Z,3.30
2022-10-28T03:04:16.040Z,2.90
2022-10-28T03:06:43.767Z,3.25
2022-10-28T03:09:11.563Z,2.33
2022-10-28T03:11:39.259Z,3.40
2022-10-28T03:14:09.585Z,2.78
2022-10-28T03:16:39.795Z,3.80
2022-10-28T03:21:41.467Z,2.83
2022-10-28T03:24:09.300Z,2.45
2022-10-28T03:26:36.979Z,3.53
2022-10-28T03:29:04.623Z,3.00
2022-10-28T03:31:32.311Z,3.22
2022-10-28T03:34:00.051Z,2.95
2022-10-28T03:36:27.971Z,2.90
2022-10-28T03:38:56.996Z,2.65
2022-10-28T03:41:24.811Z,3.10
2022-10-28T03:43:52.479Z,3.63
2022-10-28T03:46:20.165Z,3.28
2022-10-28T03:48:47.844Z,2.30
2022-10-28T03:51:15.548Z,3.17
2022-10-28T03:53:43.267Z,2.63
2022-10-28T03:56:13.167Z,4.45
2022-10-28T03:58:41.420Z,2.83
2022-10-28T04:01:09.659Z,3.20
2022-10-28T04:03:37.407Z,3.10
2022-10-28T04:06:05.397Z,2.83
2022-10-28T04:08:33.636Z,2.15
2022-10-28T04:11:01.384Z,3.60
2022-10-28T04:13:30.430Z,2.85
2022-10-28T04:16:01.839Z,2.63
2022-10-28T04:18:29.528Z,2.38
2022-10-28T04:20:57.239Z,3.17
2022-10-28T04:23:24.976Z,3.13
2022-10-28T04:25:54.092Z,2.80
2022-10-28T04:28:22.141Z,2.22
2022-10-28T04:30:51.182Z,3.00
2022-10-28T04:33:19.597Z,2.60
2022-10-28T04:35:47.377Z,2.35
2022-10-28T04:38:15.215Z,2.97
2022-10-28T04:40:43.384Z,3.05
2022-10-28T04:43:11.641Z,2.90
2022-10-28T04:45:39.804Z,3.28
2022-10-28T04:48:10.449Z,3.83
2022-10-28T04:50:38.991Z,2.78
2022-10-28T04:53:11.871Z,2.63
2022-10-28T04:55:39.625Z,2.40
2022-10-28T04:58:07.577Z,3.38
2022-10-28T05:00:37.685Z,2.80
2022-10-28T05:03:08.776Z,3.00
2022-10-28T05:05:36.495Z,2.70
2022-10-28T05:08:04.288Z,2.60
2022-10-28T05:10:33.238Z,3.20
2022-10-28T05:13:00.979Z,3.03
2022-10-28T05:15:28.663Z,3.17
2022-10-28T05:17:56.639Z,2.78
2022-10-28T05:20:25.800Z,3.72
2022-10-28T05:22:55.853Z,3.20
2022-10-28T05:25:24.911Z,3.70
2022-10-28T05:27:52.991Z,2.60
2022-10-28T05:30:22.092Z,3.78
2022-10-28T05:32:54.348Z,3.13
2022-10-28T05:35:24.279Z,3.83
2022-10-28T05:37:53.291Z,3.10
2022-10-28T05:40:21.624Z,2.63
2022-10-28T05:42:49.322Z,2.17
2022-10-28T05:45:17.301Z,2.67
2022-10-28T05:47:46.220Z,3.38
2022-10-28T05:50:15.535Z,2.60
2022-10-28T05:52:46.812Z,3.25
2022-10-28T05:55:16.431Z,2.70
2022-10-28T05:57:44.375Z,2.95
2022-10-28T06:00:13.578Z,3.22
2022-10-28T06:02:43.608Z,3.17
2022-10-28T06:05:12.382Z,3.53
2022-10-28T06:07:41.552Z,3.05
2022-10-28T06:10:11.045Z,2.92
2022-10-28T06:12:38.557Z,3.28
2022-10-28T06:15:07.219Z,3.75
2022-10-28T06:17:34.957Z,3.58
2022-10-28T06:20:03.199Z,3.25
2022-10-28T06:22:30.874Z,3.22
2022-10-28T06:25:05.744Z,3.40
2022-10-28T06:27:33.494Z,3.20
2022-10-28T06:30:02.943Z,2.75
2022-10-28T06:32:30.618Z,3.65
2022-10-28T06:34:58.368Z,3.67
2022-10-28T06:37:26.075Z,3.97
2022-10-28T06:39:54.018Z,3.17
2022-10-28T06:42:21.708Z,4.60
2022-10-28T06:44:50.541Z,3.20
2022-10-28T06:47:24.578Z,3.80
2022-10-28T06:49:54.727Z,3.20
2022-10-28T06:52:22.406Z,4.43
2022-10-28T06:54:54.932Z,3.50
2022-10-28T06:57:25.645Z,3.83
2022-10-28T06:59:59.773Z,3.70
2022-10-28T07:02:28.848Z,3.20
2022-10-28T07:04:58.507Z,3.20
2022-10-28T07:07:26.236Z,3.83
2022-10-28T07:09:54.333Z,3.15
2022-10-28T07:12:22.104Z,3.80
2022-10-28T07:14:49.978Z,3.95
2022-10-28T07:17:18.981Z,3.05
2022-10-28T07:19:48.027Z,4.05
2022-10-28T07:22:15.780Z,3.35
2022-10-28T07:24:44.618Z,2.50
2022-10-28T07:27:14.782Z,2.60
2022-10-28T07:29:42.459Z,3.60
2022-10-28T07:32:10.174Z,2.97
2022-10-28T07:34:37.850Z,3.95
2022-10-28T07:37:06.916Z,3.15
2022-10-28T07:42:10.994Z,4.00
2022-10-28T07:44:39.659Z,3.85
2022-10-28T07:47:07.955Z,4.28
2022-10-28T07:49:36.000Z,3.55
2022-10-28T07:52:03.686Z,3.72
2022-10-28T07:54:37.454Z,3.08
2022-10-28T07:57:06.426Z,3.45
2022-10-28T07:59:34.101Z,3.60
2022-10-28T08:02:01.904Z,3.65
2022-10-28T08:04:30.414Z,4.18
2022-10-28T08:06:58.498Z,3.65
2022-10-28T08:09:26.322Z,3.03
2022-10-28T08:11:58.005Z,2.58
2022-10-28T08:14:25.790Z,3.08
2022-10-28T08:16:53.474Z,2.90
2022-10-28T08:19:21.158Z,3.47
2022-10-28T08:21:48.877Z,3.92
2022-10-28T08:24:16.727Z,3.40
2022-10-28T08:26:44.453Z,3.27
2022-10-28T08:29:13.598Z,2.80
2022-10-28T08:31:41.365Z,4.73
2022-10-28T08:34:09.560Z,3.40
2022-10-28T08:36:37.434Z,3.30
2022-10-28T08:39:05.424Z,4.63
2022-10-28T08:41:39.429Z,4.07
2022-10-28T08:44:34.052Z,2.97
2022-10-28T08:47:16.913Z,3.70
2022-10-28T08:49:49.265Z,3.07
2022-10-28T08:52:29.199Z,2.83
2022-10-28T08:55:02.385Z,2.87
2022-10-28T08:57:37.653Z,2.70
2022-10-28T09:00:11.034Z,2.77
2022-10-28T09:02:50.957Z,4.40
2022-10-28T09:05:24.788Z,3.83
2022-10-28T09:07:53.207Z,3.27
2022-10-28T09:10:36.610Z,2.70
2022-10-28T09:13:14.521Z,3.50
2022-10-28T09:15:50.346Z,2.80
2022-10-28T09:18:22.553Z,2.87
2022-10-28T09:20:54.092Z,2.63
2022-10-28T09:23:25.297Z,2.90
2022-10-28T09:26:03.312Z,3.40
2022-10-28T09:28:47.189Z,3.03
2022-10-28T09:31:27.160Z,3.80
2022-10-28T09:34:08.704Z,2.83
2022-10-28T09:36:40.649Z,3.03
2022-10-28T09:39:16.001Z,3.90
2022-10-28T09:41:45.769Z,4.93
2022-10-28T09:44:19.313Z,5.10
2022-10-28T09:46:49.396Z,4.57
2022-10-28T09:49:23.015Z,4.90
2022-10-28T09:51:56.761Z,5.90
2022-10-28T09:54:30.717Z,4.83
2022-10-28T09:56:58.489Z,5.33
2022-10-28T09:59:26.371Z,5.10
2022-10-28T10:01:54.362Z,5.27
2022-10-28T10:04:31.085Z,4.40
2022-10-28T10:07:04.402Z,3.70
2022-10-28T10:09:40.025Z,3.80
2022-10-28T10:12:11.114Z,2.60
2022-10-28T10:14:42.227Z,4.57
2022-10-28T10:17:15.743Z,2.43
2022-10-28T10:20:01.158Z,2.30
2022-10-28T10:22:32.311Z,2.60
2022-10-28T10:25:00.361Z,2.70
2022-10-28T10:27:31.154Z,2.57
2022-10-28T10:29:59.660Z,2.80
2022-10-28T10:32:30.007Z,5.23
2022-10-28T10:35:04.925Z,3.20
2022-10-28T10:37:36.510Z,3.60
2022-10-28T10:40:12.541Z,3.07
2022-10-28T10:42:51.608Z,3.40
2022-10-28T10:45:28.945Z,3.90
2022-10-28T10:48:13.589Z,2.50
2022-10-28T10:50:45.029Z,2.87
2022-10-28T10:53:21.242Z,3.47
2022-10-28T10:55:55.710Z,2.80
2022-10-28T10:58:25.860Z,2.80
2022-10-28T11:01:00.590Z,2.50
2022-10-28T11:03:33.246Z,3.33
2022-10-28T11:06:24.608Z,2.43
2022-10-28T11:08:58.256Z,2.43
2022-10-28T11:11:37.990Z,3.37
2022-10-28T11:14:19.394Z,2.27
2022-10-28T11:16:49.898Z,2.60
2022-10-28T11:19:22.968Z,2.47
2022-10-28T11:22:09.709Z,2.37
2022-10-28T11:24:49.277Z,2.50
2022-10-28T11:27:28.359Z,1.90
2022-10-28T11:29:57.698Z,2.60
2022-10-28T11:32:45.249Z,2.80
2022-10-28T11:35:35.203Z,3.30
2022-10-28T11:38:16.682Z,2.80
2022-10-28T11:40:57.467Z,3.03
2022-10-28T11:43:31.783Z,2.43
2022-10-28T11:46:06.195Z,2.40
2022-10-28T11:48:47.270Z,3.50
2022-10-28T11:51:29.154Z,3.80
2022-10-28T11:54:17.484Z,3.90
2022-10-28T11:56:48.799Z,3.30
2022-10-28T11:59:34.674Z,4.10
2022-10-28T12:02:14.110Z,3.60
2022-10-28T12:04:50.666Z,3.30
2022-10-28T12:07:41.703Z,3.23
2022-10-28T12:10:26.238Z,3.37
2022-10-28T12:13:09.374Z,3.03
2022-10-28T12:15:46.076Z,3.60
2022-10-28T12:18:23.489Z,3.30
2022-10-28T12:20:58.634Z,3.17
2022-10-28T12:23:27.758Z,3.20
2022-10-28T12:25:59.836Z,2.33
2022-10-28T12:28:31.490Z,3.87
2022-10-28T12:30:59.740Z,3.87
2022-10-28T12:33:32.395Z,2.80
2022-10-28T12:36:15.279Z,3.83
2022-10-28T12:38:49.098Z,3.23
2022-10-28T12:41:21.523Z,3.53
2022-10-28T12:43:55.369Z,3.00
2022-10-28T12:46:29.791Z,2.77
2022-10-28T12:49:04.997Z,3.40
2022-10-28T12:51:38.606Z,2.97
2022-10-28T12:54:17.702Z,3.03
2022-10-28T12:56:52.667Z,3.10
2022-10-28T12:59:28.719Z,8.70
2022-10-28T13:02:01.042Z,10.83
2022-10-28T13:04:29.441Z,10.00
2022-10-28T13:07:14.360Z,4.60
2022-10-28T13:09:51.790Z,3.70
2022-10-28T13:12:43.978Z,3.10
2022-10-28T13:15:25.923Z,2.73
2022-10-28T13:18:29.845Z,3.77
2022-10-28T13:21:08.462Z,3.43
2022-10-28T13:23:44.755Z,3.97
2022-10-28T13:26:22.553Z,2.90
2022-10-28T13:28:55.865Z,2.80
2022-10-28T13:31:24.239Z,3.30
2022-10-28T13:33:55.336Z,3.33
2022-10-28T13:36:28.342Z,3.93
2022-10-28T13:38:59.661Z,3.17
2022-10-28T13:41:31.344Z,2.97
2022-10-28T13:44:23.232Z,3.23
2022-10-28T13:47:26.971Z,3.53
2022-10-28T13:50:14.090Z,3.30
2022-10-28T13:52:42.779Z,3.47
2022-10-28T13:55:23.920Z,5.20
2022-10-28T13:57:59.588Z,3.40
2022-10-28T14:00:39.152Z,3.97
2022-10-28T14:03:17.378Z,4.03
2022-10-28T14:05:55.180Z,3.50
2022-10-28T14:08:32.322Z,4.10
2022-10-28T14:11:06.345Z,3.63
2022-10-28T14:13:37.650Z,2.73
2022-10-28T14:16:23.178Z,3.20
2022-10-28T14:18:57.940Z,3.53
2022-10-28T14:21:26.154Z,3.10
2022-10-28T14:24:10.704Z,3.27
2022-10-28T14:27:08.323Z,3.90
2022-10-28T14:29:44.321Z,3.73
2022-10-28T14:32:41.848Z,3.70
2022-10-28T14:35:22.669Z,4.30
2022-10-28T14:38:20.199Z,3.07
2022-10-28T14:40:51.317Z,3.50
2022-10-28T14:43:34.902Z,3.13
2022-10-28T14:46:12.133Z,3.43
2022-10-28T14:48:48.475Z,3.23
2022-10-28T14:51:21.473Z,3.10
2022-10-28T14:53:52.877Z,3.17
2022-10-28T14:56:25.100Z,4.47
2022-10-28T14:58:55.251Z,3.90
2022-10-28T15:01:27.648Z,3.63
2022-10-28T15:04:00.065Z,3.30
2022-10-28T15:06:33.881Z,4.07
2022-10-28T15:09:14.472Z,3.47
2022-10-28T15:11:45.668Z,3.30
2022-10-28T15:14:27.123Z,3.17
2022-10-28T15:16:55.090Z,3.73
2022-10-28T15:19:24.879Z,3.13
2022-10-28T15:22:13.536Z,3.53
2022-10-28T15:24:44.698Z,4.20
2022-10-28T15:27:15.743Z,3.40
2022-10-28T15:29:43.961Z,3.90
2022-10-28T15:32:16.107Z,4.77
2022-10-28T15:34:44.644Z,2.93
2022-10-28T15:37:18.506Z,5.97
2022-10-28T15:39:46.877Z,4.70
2022-10-28T15:42:32.410Z,4.23
2022-10-28T15:45:00.388Z,3.43
2022-10-28T15:47:32.916Z,3.90
2022-10-28T15:50:03.225Z,4.30
2022-10-28T15:52:40.408Z,3.57
2022-10-28T15:55:35.611Z,3.70
2022-10-28T15:58:33.898Z,3.80
2022-10-28T16:01:01.925Z,4.43
2022-10-28T16:03:42.417Z,3.60
2022-10-28T16:06:22.710Z,4.53
2022-10-28T16:09:00.931Z,5.50
2022-10-28T16:11:29.845Z,4.00
2022-10-28T16:13:58.002Z,4.23
2022-10-28T16:16:28.631Z,4.60
2022-10-28T16:19:03.205Z,4.57
2022-10-28T16:21:32.395Z,4.07
2022-10-28T16:24:01.408Z,5.77
2022-10-28T16:26:31.941Z,3.57
2022-10-28T16:28:59.686Z,4.90
2022-10-28T16:31:31.361Z,4.77
2022-10-28T16:33:59.705Z,7.30
2022-10-28T16:36:28.116Z,4.53
2022-10-28T16:38:55.860Z,6.13
2022-10-28T16:41:25.576Z,4.50
2022-10-28T16:43:53.798Z,4.93
2022-10-28T16:46:23.706Z,5.40
2022-10-28T16:48:51.435Z,4.10
2022-10-28T16:51:19.417Z,4.43
2022-10-28T16:53:49.495Z,4.67
2022-10-28T16:56:18.254Z,4.10
2022-10-28T16:58:47.278Z,4.43
2022-10-28T17:01:19.950Z,3.47
2022-10-28T17:03:48.090Z,4.10
2022-10-28T17:06:15.894Z,5.13
2022-10-28T17:14:05.475Z,4.50
2022-10-28T17:16:33.186Z,5.57
2022-10-28T17:19:00.956Z,5.50
2022-10-28T17:21:28.635Z,5.30
2022-10-28T17:23:56.387Z,5.40
2022-10-28T17:26:24.079Z,4.90
2022-10-28T17:28:52.418Z,4.50
2022-10-28T17:31:24.935Z,4.63
2022-10-28T17:33:55.276Z,3.87
2022-10-28T17:36:28.837Z,5.60
2022-10-28T17:38:56.613Z,5.20
2022-10-28T17:41:24.431Z,3.97
2022-10-28T17:43:53.946Z,5.40
2022-10-28T17:46:23.407Z,5.70
2022-10-28T17:48:51.109Z,7.47
2022-10-28T17:51:20.900Z,7.23
2022-10-28T17:53:48.621Z,8.67
2022-10-28T17:56:16.383Z,6.00
2022-10-28T17:58:44.170Z,6.23
2022-10-28T18:01:12.504Z,5.90
2022-10-28T18:03:41.584Z,5.27
2022-10-28T18:06:13.080Z,5.50
2022-10-28T18:08:42.605Z,6.30
2022-10-28T18:11:12.253Z,5.77
2022-10-28T18:13:41.530Z,5.83
2022-10-28T18:16:12.083Z,5.57
2022-10-28T18:18:42.710Z,5.73
2022-10-28T18:21:11.404Z,4.90
2022-10-28T18:23:40.739Z,5.40
2022-10-28T18:26:11.427Z,5.87
2022-10-28T18:28:40.300Z,5.53
2022-10-28T18:31:11.356Z,5.50
2022-10-28T18:33:41.004Z,6.67
2022-10-28T18:36:12.392Z,7.80
2022-10-28T18:38:40.305Z,5.40
2022-10-28T18:41:11.444Z,6.38
2022-10-28T18:43:39.286Z,7.63
2022-10-28T18:46:07.558Z,6.60
2022-10-28T18:48:35.340Z,5.97
2022-10-28T18:51:07.205Z,6.20
2022-10-28T18:53:36.742Z,8.20
2022-10-28T18:56:06.024Z,6.30
2022-10-28T18:58:34.009Z,6.90
2022-10-28T19:01:10.909Z,5.72
2022-10-28T19:03:39.576Z,6.75
2022-10-28T19:06:10.779Z,7.00
2022-10-28T19:08:39.620Z,11.20
2022-10-28T19:11:09.320Z,5.85
2022-10-28T19:13:39.107Z,5.70
2022-10-28T19:16:08.324Z,6.20
2022-10-28T19:18:38.183Z,4.67
2022-10-28T19:21:10.541Z,5.73
2022-10-28T19:23:38.605Z,6.87
2022-10-28T19:26:07.431Z,5.97
2022-10-28T19:28:39.623Z,5.57
2022-10-28T19:31:09.264Z,5.95
2022-10-28T19:33:39.178Z,6.07
2022-10-28T19:36:14.227Z,4.75
2022-10-28T19:38:42.219Z,4.43
2022-10-28T19:41:11.705Z,4.18
2022-10-28T19:43:39.585Z,4.60
2022-10-28T19:46:10.336Z,5.35
2022-10-28T19:48:38.948Z,4.97
2022-10-28T19:51:09.086Z,4.80
2022-10-28T19:53:36.832Z,4.90
2022-10-28T19:56:05.393Z,5.40
2022-10-28T19:58:34.884Z,4.85
2022-10-28T20:01:05.117Z,4.63
2022-10-28T20:03:35.207Z,6.28
2022-10-28T20:06:06.507Z,4.70
2022-10-28T20:08:36.624Z,5.65
2022-10-28T20:11:06.551Z,4.72
2022-10-28T20:13:35.546Z,4.15
2022-10-28T20:16:05.408Z,5.70
2022-10-28T20:18:34.002Z,5.32
2022-10-28T20:21:05.281Z,5.60
2022-10-28T20:23:35.489Z,7.38
2022-10-28T20:26:05.466Z,6.03
2022-10-28T20:28:33.524Z,5.32
2022-10-28T20:31:03.064Z,7.07
2022-10-28T20:33:32.175Z,7.15
2022-10-28T20:36:00.088Z,6.70
2022-10-28T20:38:28.992Z,7.15
2022-10-28T20:40:58.736Z,7.15
2022-10-28T20:43:32.615Z,7.78
2022-10-28T20:46:02.495Z,6.72
2022-10-28T20:48:31.628Z,7.47
2022-10-28T20:51:00.829Z,5.57
2022-10-28T20:53:31.249Z,5.97
2022-10-28T20:55:59.584Z,7.00
2022-10-28T20:58:31.148Z,4.72
2022-10-28T21:01:03.747Z,5.32
2022-10-28T21:03:31.640Z,6.15
2022-10-28T21:05:59.571Z,5.75
2022-10-28T21:08:27.620Z,5.07
2022-10-28T21:10:55.345Z,6.10
2022-10-28T21:13:23.062Z,5.57
2022-10-28T21:15:56.500Z,4.93
2022-10-28T21:18:26.087Z,5.10
2022-10-28T21:20:59.504Z,5.28
2022-10-28T21:23:28.580Z,5.75
2022-10-28T21:25:57.504Z,7.05
2022-10-28T21:28:25.301Z,4.60
2022-10-28T21:30:59.752Z,4.78
2022-10-28T21:33:27.606Z,6.25
2022-10-28T21:35:56.699Z,4.70
2022-10-28T21:38:24.897Z,5.63
2022-10-28T21:41:00.176Z,5.85
2022-10-28T21:43:29.267Z,5.45
2022-10-28T21:45:58.441Z,5.13
2022-10-28T21:48:27.132Z,6.18
2022-10-28T21:50:56.415Z,7.65
2022-10-28T21:53:25.184Z,6.78
2022-10-28T21:55:55.499Z,5.60
2022-10-28T21:58:23.451Z,5.15
2022-10-28T22:00:51.208Z,4.30
2022-10-28T22:03:20.191Z,4.65
2022-10-28T22:05:51.578Z,5.55
2022-10-28T22:08:19.265Z,5.63
2022-10-28T22:10:46.948Z,5.00
2022-10-28T22:13:14.652Z,4.70
2022-10-28T22:15:42.357Z,4.80
2022-10-28T22:18:10.052Z,5.63
2022-10-28T22:20:39.086Z,4.47
2022-10-28T22:23:06.809Z,4.57
2022-10-28T22:25:34.552Z,5.38
2022-10-28T22:28:04.702Z,4.40
2022-10-28T22:30:32.542Z,6.57
2022-10-28T22:33:00.228Z,4.55
2022-10-28T22:35:27.955Z,4.85
2022-10-28T22:37:57.116Z,4.72
2022-10-28T22:40:24.995Z,5.25
2022-10-28T22:42:52.668Z,4.95
2022-10-28T22:45:20.758Z,5.70
2022-10-28T22:47:50.215Z,4.40
2022-10-28T22:50:17.912Z,6.97
2022-10-28T22:52:45.608Z,6.53
2022-10-28T22:55:14.664Z,5.57
2022-10-28T22:57:42.370Z,5.20
2022-10-28T23:00:11.168Z,4.63
2022-10-28T23:02:39.065Z,4.45
2022-10-28T23:05:07.685Z,4.53
2022-10-28T23:07:35.430Z,4.80
2022-10-28T23:10:03.181Z,4.18
2022-10-28T23:12:32.255Z,4.82
2022-10-28T23:14:59.903Z,4.88
2022-10-28T23:17:27.593Z,3.67
2022-10-28T23:19:55.269Z,4.95
2022-10-28T23:22:22.944Z,4.80
2022-10-28T23:24:50.624Z,5.50
2022-10-28T23:27:18.432Z,4.57
2022-10-28T23:29:47.471Z,6.20
2022-10-28T23:32:15.196Z,4.53
2022-10-28T23:34:42.849Z,5.50
2022-10-28T23:37:10.532Z,4.00
2022-10-28T23:39:38.309Z,5.43
2022-10-28T23:42:06.100Z,5.18
2022-10-28T23:44:33.744Z,4.80
2022-10-28T23:47:02.803Z,4.80
2022-10-28T23:49:30.547Z,5.22
2022-10-28T23:51:58.220Z,5.47
2022-10-28T23:54:25.948Z,5.97
2022-10-28T23:56:53.675Z,5.35
2022-10-28T23:59:21.428Z,5.55
